Coronhach, Canada
Current Conditions -  °F | °C
As of 5:53 PM on Saturday 25 Oct 2014 (Local Time) from KOLF Reporting Station
Clear Clear  
Wind Chill: 59°   Ceiling: Unl
Heat Index: 59°   Visibility: 10mi
Dew Point: 33°   Wind: 10mph
Humidity: 38%   Direction: 90°E
Pressure: 29.82"   Gusts: NA
Location:  49.11°N, 105.51°W
Report Text: KOLF 252353Z AUTO 09009KT 10SM CLR 15/01 A2982 RMK AO2 SLP105 T01500006 10200 20144 56031
Loading
Personal Weather Stations






























Interactive Weather Map
Tropical Storm Tracking
New forecast layout! Learn more

10-Day Weather Forecast

Advertisements
Track Severe Weather on mobile